sensor_id;sensor_type;location;lat;lon;timestamp;pressure;altitude;pressure_sealevel;temperature;humidity
19208;BME280;9737;59.466;18.036;2023-09-30T00:01:51;99359.69;;;15.28;81.84
19208;BME280;9737;59.466;18.036;2023-09-30T00:04:19;99340.63;;;15.23;81.81
19208;BME280;9737;59.466;18.036;2023-09-30T00:06:47;99353.66;;;15.26;81.74
19208;BME280;9737;59.466;18.036;2023-09-30T00:09:15;99340.44;;;15.24;81.85
19208;BME280;9737;59.466;18.036;2023-09-30T00:11:43;99369.41;;;15.29;82.08
19208;BME280;9737;59.466;18.036;2023-09-30T00:14:13;99369.41;;;15.29;81.72
19208;BME280;9737;59.466;18.036;2023-09-30T00:16:41;99345.97;;;15.23;81.92
19208;BME280;9737;59.466;18.036;2023-09-30T00:19:09;99353.84;;;15.24;82.04
19208;BME280;9737;59.466;18.036;2023-09-30T00:21:37;99383.44;;;15.31;82.01
19208;BME280;9737;59.466;18.036;2023-09-30T00:24:06;99398.22;;;15.35;82.16
19208;BME280;9737;59.466;18.036;2023-09-30T00:26:34;99378.94;;;15.31;82.11
19208;BME280;9737;59.466;18.036;2023-09-30T00:29:02;99395.53;;;15.35;82.09
19208;BME280;9737;59.466;18.036;2023-09-30T00:31:32;99375.59;;;15.29;82.23
19208;BME280;9737;59.466;18.036;2023-09-30T00:34:00;99385.28;;;15.30;82.24
19208;BME280;9737;59.466;18.036;2023-09-30T00:36:28;99412.28;;;15.37;82.14
19208;BME280;9737;59.466;18.036;2023-09-30T00:38:56;99384.47;;;15.13;82.33
19208;BME280;9737;59.466;18.036;2023-09-30T00:41:24;99410.59;;;15.36;82.55
19208;BME280;9737;59.466;18.036;2023-09-30T00:43:52;99420.97;;;15.39;82.48
19208;BME280;9737;59.466;18.036;2023-09-30T00:46:26;99424.84;;;15.36;82.48
19208;BME280;9737;59.466;18.036;2023-09-30T00:48:57;99425.66;;;15.37;82.67
19208;BME280;9737;59.466;18.036;2023-09-30T00:51:25;99419.31;;;15.38;82.55
19208;BME280;9737;59.466;18.036;2023-09-30T00:53:56;99419.31;;;15.38;82.87
19208;BME280;9737;59.466;18.036;2023-09-30T00:56:27;99408.94;;;15.35;82.73
19208;BME280;9737;59.466;18.036;2023-09-30T00:58:55;99437.88;;;15.39;82.58
19208;BME280;9737;59.466;18.036;2023-09-30T01:01:23;99437.72;;;15.41;82.83
19208;BME280;9737;59.466;18.036;2023-09-30T01:03:51;99436.22;;;15.38;82.73
19208;BME280;9737;59.466;18.036;2023-09-30T01:06:21;99431.03;;;15.37;82.70
19208;BME280;9737;59.466;18.036;2023-09-30T01:08:50;99417.13;;;15.33;82.63
19208;BME280;9737;59.466;18.036;2023-09-30T01:11:18;99402.72;;;15.34;82.76
19208;BME280;9737;59.466;18.036;2023-09-30T01:13:47;99403.22;;;15.30;83.01
19208;BME280;9737;59.466;18.036;2023-09-30T01:16:16;99405.88;;;15.30;82.80
19208;BME280;9737;59.466;18.036;2023-09-30T01:18:44;99391.81;;;15.28;83.05
19208;BME280;9737;59.466;18.036;2023-09-30T01:21:11;99388.47;;;15.26;82.95
19208;BME280;9737;59.466;18.036;2023-09-30T01:23:41;99391.00;;;15.27;82.87
19208;BME280;9737;59.466;18.036;2023-09-30T01:26:11;99367.41;;;15.23;83.17
19208;BME280;9737;59.466;18.036;2023-09-30T01:28:40;99351.00;;;15.17;83.00
19208;BME280;9737;59.466;18.036;2023-09-30T01:31:08;99329.25;;;15.12;83.18
19208;BME280;9737;59.466;18.036;2023-09-30T01:33:35;99296.28;;;15.04;83.34
19208;BME280;9737;59.466;18.036;2023-09-30T01:36:04;99286.06;;;14.99;83.24
19208;BME280;9737;59.466;18.036;2023-09-30T01:38:32;99255.28;;;14.95;83.40
19208;BME280;9737;59.466;18.036;2023-09-30T01:41:01;99244.09;;;14.92;83.19
19208;BME280;9737;59.466;18.036;2023-09-30T01:43:28;99217.84;;;14.87;83.40
19208;BME280;9737;59.466;18.036;2023-09-30T01:45:56;99216.16;;;14.86;83.07
19208;BME280;9737;59.466;18.036;2023-09-30T01:48:25;99214.50;;;14.85;83.22
19208;BME280;9737;59.466;18.036;2023-09-30T01:50:53;99194.44;;;14.81;83.47
19208;BME280;9737;59.466;18.036;2023-09-30T01:53:20;99186.75;;;14.78;83.30
19208;BME280;9737;59.466;18.036;2023-09-30T01:55:48;99171.03;;;14.75;83.12
19208;BME280;9737;59.466;18.036;2023-09-30T01:58:18;99175.50;;;14.74;83.52
19208;BME280;9737;59.466;18.036;2023-09-30T02:00:45;99167.66;;;14.73;83.65
19208;BME280;9737;59.466;18.036;2023-09-30T02:03:13;99154.78;;;14.68;83.74
19208;BME280;9737;59.466;18.036;2023-09-30T02:05:41;99146.94;;;14.67;83.38
19208;BME280;9737;59.466;18.036;2023-09-30T02:08:09;99125.03;;;14.63;83.75
19208;BME280;9737;59.466;18.036;2023-09-30T02:10:37;99120.88;;;14.61;83.36
19208;BME280;9737;59.466;18.036;2023-09-30T02:13:05;99125.22;;;14.62;83.77
19208;BME280;9737;59.466;18.036;2023-09-30T02:15:35;99114.00;;;14.58;83.65
19208;BME280;9737;59.466;18.036;2023-09-30T02:18:03;99113.00;;;14.59;83.52
19208;BME280;9737;59.466;18.036;2023-09-30T02:20:31;99110.50;;;14.57;83.63
19208;BME280;9737;59.466;18.036;2023-09-30T02:22:59;99072.91;;;14.51;83.63
19208;BME280;9737;59.466;18.036;2023-09-30T02:25:29;99064.38;;;14.47;83.58
19208;BME280;9737;59.466;18.036;2023-09-30T02:27:58;99042.63;;;14.42;83.82
19208;BME280;9737;59.466;18.036;2023-09-30T02:30:37;99035.59;;;14.41;83.96
19208;BME280;9737;59.466;18.036;2023-09-30T02:33:05;99003.69;;;14.32;83.61
19208;BME280;9737;59.466;18.036;2023-09-30T02:35:36;98947.44;;;14.17;83.56
19208;BME280;9737;59.466;18.036;2023-09-30T02:38:05;98910.19;;;14.07;83.63
19208;BME280;9737;59.466;18.036;2023-09-30T02:40:33;98851.78;;;13.96;83.70
19208;BME280;9737;59.466;18.036;2023-09-30T02:43:01;98793.91;;;13.72;83.95
19208;BME280;9737;59.466;18.036;2023-09-30T02:45:31;98775.31;;;13.79;83.55
19208;BME280;9737;59.466;18.036;2023-09-30T02:48:00;98747.00;;;13.70;84.02
19208;BME280;9737;59.466;18.036;2023-09-30T02:50:28;98691.25;;;13.58;84.03
19208;BME280;9737;59.466;18.036;2023-09-30T02:52:57;98668.94;;;13.51;83.88
19208;BME280;9737;59.466;18.036;2023-09-30T02:55:25;98634.09;;;13.45;83.90
19208;BME280;9737;59.466;18.036;2023-09-30T02:57:53;98588.94;;;13.35;83.65
19208;BME280;9737;59.466;18.036;2023-09-30T03:00:21;98562.06;;;13.28;83.86
19208;BME280;9737;59.466;18.036;2023-09-30T03:02:52;98532.75;;;13.20;83.81
19208;BME280;9737;59.466;18.036;2023-09-30T03:05:22;98483.25;;;13.10;83.99
19208;BME280;9737;59.466;18.036;2023-09-30T03:07:50;98454.81;;;13.02;84.07
19208;BME280;9737;59.466;18.036;2023-09-30T03:10:18;98434.31;;;12.94;83.91
19208;BME280;9737;59.466;18.036;2023-09-30T03:12:50;98382.91;;;12.78;84.03
19208;BME280;9737;59.466;18.036;2023-09-30T03:15:19;98387.19;;;12.87;84.06
19208;BME280;9737;59.466;18.036;2023-09-30T03:17:47;98380.53;;;12.83;84.09
19208;BME280;9737;59.466;18.036;2023-09-30T03:20:19;98359.09;;;12.76;84.02
19208;BME280;9737;59.466;18.036;2023-09-30T03:22:49;98352.09;;;12.75;84.07
19208;BME280;9737;59.466;18.036;2023-09-30T03:25:19;98338.94;;;12.74;83.98
19208;BME280;9737;59.466;18.036;2023-09-30T03:27:49;98333.94;;;12.70;84.15
19208;BME280;9737;59.466;18.036;2023-09-30T03:30:17;98340.78;;;12.73;84.09
19208;BME280;9737;59.466;18.036;2023-09-30T03:32:47;98365.25;;;12.77;83.98
19208;BME280;9737;59.466;18.036;2023-09-30T03:35:15;98389.38;;;12.83;84.05
19208;BME280;9737;59.466;18.036;2023-09-30T03:37:45;98402.19;;;12.88;84.01
19208;BME280;9737;59.466;18.036;2023-09-30T03:40:15;98442.13;;;12.96;84.07
19208;BME280;9737;59.466;18.036;2023-09-30T03:42:47;98456.78;;;13.00;84.02
19208;BME280;9737;59.466;18.036;2023-09-30T03:45:16;98481.78;;;13.07;84.16
19208;BME280;9737;59.466;18.036;2023-09-30T03:47:45;98500.75;;;13.12;84.19
19208;BME280;9737;59.466;18.036;2023-09-30T03:50:15;98513.75;;;13.15;84.01
19208;BME280;9737;59.466;18.036;2023-09-30T03:52:43;98522.44;;;13.17;84.09
19208;BME280;9737;59.466;18.036;2023-09-30T03:55:16;98540.13;;;13.18;84.16
19208;BME280;9737;59.466;18.036;2023-09-30T03:57:47;98544.28;;;13.21;84.38
19208;BME280;9737;59.466;18.036;2023-09-30T04:00:15;98550.44;;;13.21;84.32
19208;BME280;9737;59.466;18.036;2023-09-30T04:02:47;98561.78;;;13.23;84.05
19208;BME280;9737;59.466;18.036;2023-09-30T04:05:17;98546.75;;;13.22;84.45
19208;BME280;9737;59.466;18.036;2023-09-30T04:07:46;98544.28;;;13.21;84.18
19208;BME280;9737;59.466;18.036;2023-09-30T04:10:16;98556.44;;;13.23;84.22
19208;BME280;9737;59.466;18.036;2023-09-30T04:12:47;98564.09;;;13.26;84.15
19208;BME280;9737;59.466;18.036;2023-09-30T04:15:15;98569.44;;;13.26;84.12
19208;BME280;9737;59.466;18.036;2023-09-30T04:17:43;98572.94;;;13.27;84.14
19208;BME280;9737;59.466;18.036;2023-09-30T04:20:11;98564.09;;;13.26;84.05
19208;BME280;9737;59.466;18.036;2023-09-30T04:22:45;98550.25;;;13.23;84.22
19208;BME280;9737;59.466;18.036;2023-09-30T04:25:16;98566.94;;;13.25;84.31
19208;BME280;9737;59.466;18.036;2023-09-30T04:27:45;98541.78;;;13.19;84.20
19208;BME280;9737;59.466;18.036;2023-09-30T04:30:16;98544.28;;;13.21;84.29
19208;BME280;9737;59.466;18.036;2023-09-30T04:32:45;98538.47;;;13.17;84.14
19208;BME280;9737;59.466;18.036;2023-09-30T04:35:13;98561.94;;;13.22;84.05
19208;BME280;9737;59.466;18.036;2023-09-30T04:37:41;98547.94;;;13.20;84.43
19208;BME280;9737;59.466;18.036;2023-09-30T04:40:10;98561.13;;;13.21;84.35
19208;BME280;9737;59.466;18.036;2023-09-30T04:42:44;98555.78;;;13.21;84.44
19208;BME280;9737;59.466;18.036;2023-09-30T04:45:13;98544.44;;;13.19;84.30
19208;BME280;9737;59.466;18.036;2023-09-30T04:47:43;98542.78;;;13.18;84.33
19208;BME280;9737;59.466;18.036;2023-09-30T04:50:12;98517.78;;;13.11;84.13
19208;BME280;9737;59.466;18.036;2023-09-30T04:52:43;98497.13;;;13.05;84.52
19208;BME280;9737;59.466;18.036;2023-09-30T04:55:12;98483.78;;;13.05;84.20
19208;BME280;9737;59.466;18.036;2023-09-30T04:57:44;98465.78;;;12.99;84.46
19208;BME280;9737;59.466;18.036;2023-09-30T05:00:13;98468.47;;;12.99;84.37
19208;BME280;9737;59.466;18.036;2023-09-30T05:02:41;98469.16;;;13.01;84.29
19208;BME280;9737;59.466;18.036;2023-09-30T05:05:12;98463.13;;;12.99;84.46
19208;BME280;9737;59.466;18.036;2023-09-30T05:07:41;98462.94;;;13.00;84.47
19208;BME280;9737;59.466;18.036;2023-09-30T05:10:10;98458.78;;;12.98;84.17
19208;BME280;9737;59.466;18.036;2023-09-30T05:12:40;98463.13;;;12.99;84.38
19208;BME280;9737;59.466;18.036;2023-09-30T05:15:15;98457.13;;;12.97;84.53
19208;BME280;9737;59.466;18.036;2023-09-30T05:17:44;98444.16;;;12.94;84.48
19208;BME280;9737;59.466;18.036;2023-09-30T05:20:12;98415.50;;;12.88;84.31
19208;BME280;9737;59.466;18.036;2023-09-30T05:22:40;98394.88;;;12.82;84.46
19208;BME280;9737;59.466;18.036;2023-09-30T05:25:11;98360.28;;;12.74;84.58
19208;BME280;9737;59.466;18.036;2023-09-30T05:27:39;98340.28;;;12.69;84.30
19208;BME280;9737;59.466;18.036;2023-09-30T05:30:08;98317.81;;;12.64;84.39
19208;BME280;9737;59.466;18.036;2023-09-30T05:32:38;98297.00;;;12.59;84.33
19208;BME280;9737;59.466;18.036;2023-09-30T05:35:07;98284.03;;;12.56;84.49
19208;BME280;9737;59.466;18.036;2023-09-30T05:37:40;98310.81;;;12.63;84.27
19208;BME280;9737;59.466;18.036;2023-09-30T05:40:08;98323.97;;;12.64;84.37
19208;BME280;9737;59.466;18.036;2023-09-30T05:42:44;98340.28;;;12.69;84.38
19208;BME280;9737;59.466;18.036;2023-09-30T05:45:12;98363.59;;;12.76;84.28
19208;BME280;9737;59.466;18.036;2023-09-30T05:47:41;98361.09;;;12.74;84.24
19208;BME280;9737;59.466;18.036;2023-09-30T05:50:11;98361.94;;;12.75;84.28
19208;BME280;9737;59.466;18.036;2023-09-30T05:52:42;98364.78;;;12.73;84.37
19208;BME280;9737;59.466;18.036;2023-09-30T05:55:11;98371.59;;;12.76;84.22
19208;BME280;9737;59.466;18.036;2023-09-30T05:57:39;98383.38;;;12.81;84.30
19208;BME280;9737;59.466;18.036;2023-09-30T06:00:10;98413.84;;;12.87;84.37
19208;BME280;9737;59.466;18.036;2023-09-30T06:02:43;98407.88;;;12.85;84.41
19208;BME280;9737;59.466;18.036;2023-09-30T06:05:11;98438.81;;;12.94;84.21
19208;BME280;9737;59.466;18.036;2023-09-30T06:07:38;98480.13;;;12.98;84.31
19208;BME280;9737;59.466;18.036;2023-09-30T06:10:08;98507.28;;;13.10;84.40
19208;BME280;9737;59.466;18.036;2023-09-30T06:12:36;98538.47;;;13.17;84.38
19208;BME280;9737;59.466;18.036;2023-09-30T06:15:05;98564.44;;;13.23;84.26
19208;BME280;9737;59.466;18.036;2023-09-30T06:17:33;98582.78;;;13.26;84.10
19208;BME280;9737;59.466;18.036;2023-09-30T06:20:06;98592.97;;;13.31;84.29
19208;BME280;9737;59.466;18.036;2023-09-30T06:22:36;98615.63;;;13.35;84.12
19208;BME280;9737;59.466;18.036;2023-09-30T06:25:04;98592.44;;;13.27;84.32
19208;BME280;9737;59.466;18.036;2023-09-30T06:27:32;98624.28;;;13.37;84.04
19208;BME280;9737;59.466;18.036;2023-09-30T06:30:00;98640.78;;;13.41;84.27
19208;BME280;9737;59.466;18.036;2023-09-30T06:32:28;98620.78;;;13.37;84.17
19208;BME280;9737;59.466;18.036;2023-09-30T06:34:56;98630.09;;;13.41;84.07
19208;BME280;9737;59.466;18.036;2023-09-30T06:37:25;98646.13;;;13.41;84.34
19208;BME280;9737;59.466;18.036;2023-09-30T06:39:53;98658.13;;;13.45;84.09
19208;BME280;9737;59.466;18.036;2023-09-30T06:42:21;98687.63;;;13.51;84.02
19208;BME280;9737;59.466;18.036;2023-09-30T06:44:49;98691.13;;;13.52;84.06
19208;BME280;9737;59.466;18.036;2023-09-30T06:47:16;98684.13;;;13.51;84.36
19208;BME280;9737;59.466;18.036;2023-09-30T06:49:45;98753.50;;;13.67;84.03
19208;BME280;9737;59.466;18.036;2023-09-30T06:52:13;98784.69;;;13.75;83.99
19208;BME280;9737;59.466;18.036;2023-09-30T06:54:42;98774.19;;;13.73;84.16
19208;BME280;9737;59.466;18.036;2023-09-30T06:57:10;98819.56;;;13.81;83.91
19208;BME280;9737;59.466;18.036;2023-09-30T06:59:37;98825.41;;;13.85;84.35
19208;BME280;9737;59.466;18.036;2023-09-30T07:02:06;98830.91;;;13.83;84.18
19208;BME280;9737;59.466;18.036;2023-09-30T07:04:34;98880.34;;;13.95;83.87
19208;BME280;9737;59.466;18.036;2023-09-30T07:07:02;98970.50;;;14.18;83.87
19208;BME280;9737;59.466;18.036;2023-09-30T07:09:29;99040.78;;;14.35;83.76
19208;BME280;9737;59.466;18.036;2023-09-30T07:11:59;99038.28;;;14.33;84.06
19208;BME280;9737;59.466;18.036;2023-09-30T07:14:27;99011.22;;;14.28;83.74
19208;BME280;9737;59.466;18.036;2023-09-30T07:16:55;99001.72;;;14.25;83.96
19208;BME280;9737;59.466;18.036;2023-09-30T07:19:22;98978.16;;;14.21;83.98
19208;BME280;9737;59.466;18.036;2023-09-30T07:21:50;99015.56;;;14.29;83.82
19208;BME280;9737;59.466;18.036;2023-09-30T07:24:30;99014.75;;;14.29;83.69
19208;BME280;9737;59.466;18.036;2023-09-30T07:26:59;99056.50;;;14.38;83.62
19208;BME280;9737;59.466;18.036;2023-09-30T07:29:28;99060.66;;;14.40;83.62
19208;BME280;9737;59.466;18.036;2023-09-30T07:31:56;99017.25;;;14.30;83.93
19208;BME280;9737;59.466;18.036;2023-09-30T07:34:24;98998.22;;;14.25;84.04
19208;BME280;9737;59.466;18.036;2023-09-30T07:36:52;98953.94;;;14.14;83.71
19208;BME280;9737;59.466;18.036;2023-09-30T07:39:19;98996.38;;;14.25;83.55
19208;BME280;9737;59.466;18.036;2023-09-30T07:41:47;99071.06;;;14.43;83.79
19208;BME280;9737;59.466;18.036;2023-09-30T07:44:16;99162.50;;;14.63;83.42
19208;BME280;9737;59.466;18.036;2023-09-30T07:46:44;99286.75;;;14.93;83.84
19208;BME280;9737;59.466;18.036;2023-09-30T07:49:13;99336.47;;;15.04;83.84
19208;BME280;9737;59.466;18.036;2023-09-30T07:51:41;99391.16;;;15.17;83.53
19208;BME280;9737;59.466;18.036;2023-09-30T07:54:09;99553.25;;;15.54;83.57
19208;BME280;9737;59.466;18.036;2023-09-30T07:56:57;99669.94;;;15.83;83.49
19208;BME280;9737;59.466;18.036;2023-09-30T07:59:27;99754.63;;;16.01;83.48
19208;BME280;9737;59.466;18.036;2023-09-30T08:01:55;99787.66;;;16.10;83.62
19208;BME280;9737;59.466;18.036;2023-09-30T08:04:24;99952.78;;;16.47;83.48
19208;BME280;9737;59.466;18.036;2023-09-30T08:06:52;100064.66;;;16.72;83.44
19208;BME280;9737;59.466;18.036;2023-09-30T08:09:20;100036.75;;;16.65;83.30
19208;BME280;9737;59.466;18.036;2023-09-30T08:11:52;99910.81;;;16.37;83.42
19208;BME280;9737;59.466;18.036;2023-09-30T08:14:20;99710.19;;;15.91;83.30
19208;BME280;9737;59.466;18.036;2023-09-30T08:16:49;99641.28;;;15.75;83.24
19208;BME280;9737;59.466;18.036;2023-09-30T08:19:17;99617.81;;;15.69;83.03
19208;BME280;9737;59.466;18.036;2023-09-30T08:21:47;99668.94;;;15.84;82.98
19208;BME280;9737;59.466;18.036;2023-09-30T08:24:15;99776.25;;;16.08;83.15
19208;BME280;9737;59.466;18.036;2023-09-30T08:26:44;99845.06;;;16.25;83.07
19208;BME280;9737;59.466;18.036;2023-09-30T08:29:12;99809.47;;;16.15;82.98
19208;BME280;9737;59.466;18.036;2023-09-30T08:31:39;99743.91;;;16.01;83.12
19208;BME280;9737;59.466;18.036;2023-09-30T08:34:08;99655.03;;;15.80;82.93
19208;BME280;9737;59.466;18.036;2023-09-30T08:36:36;99708.19;;;15.93;82.98
19208;BME280;9737;59.466;18.036;2023-09-30T08:39:04;99717.56;;;15.97;82.76
19208;BME280;9737;59.466;18.036;2023-09-30T08:41:33;99964.91;;;16.51;82.79
19208;BME280;9737;59.466;18.036;2023-09-30T08:44:03;99927.09;;;16.44;82.78
19208;BME280;9737;59.466;18.036;2023-09-30T08:46:32;99982.34;;;16.55;82.64
19208;BME280;9737;59.466;18.036;2023-09-30T08:49:02;99989.41;;;16.56;83.07
19208;BME280;9737;59.466;18.036;2023-09-30T08:51:32;100016.28;;;16.64;82.50
19208;BME280;9737;59.466;18.036;2023-09-30T08:54:00;100064.34;;;16.75;82.63
19208;BME280;9737;59.466;18.036;2023-09-30T08:56:31;100098.47;;;16.83;82.45
19208;BME280;9737;59.466;18.036;2023-09-30T08:59:01;100022.50;;;16.64;82.46
19208;BME280;9737;59.466;18.036;2023-09-30T09:01:30;100023.31;;;16.65;82.37
19208;BME280;9737;59.466;18.036;2023-09-30T09:03:58;100139.78;;;16.90;82.37
19208;BME280;9737;59.466;18.036;2023-09-30T09:06:26;100321.25;;;17.36;82.33
19208;BME280;9737;59.466;18.036;2023-09-30T09:09:12;100607.66;;;18.02;82.13
19208;BME280;9737;59.466;18.036;2023-09-30T09:11:41;100739.28;;;18.31;82.19
19208;BME280;9737;59.466;18.036;2023-09-30T09:14:08;100928.06;;;18.73;81.93
19208;BME280;9737;59.466;18.036;2023-09-30T09:16:36;101225.44;;;19.36;81.91
19208;BME280;9737;59.466;18.036;2023-09-30T09:19:14;101276.34;;;19.49;82.03
19208;BME280;9737;59.466;18.036;2023-09-30T09:21:53;101276.50;;;19.47;81.97
19208;BME280;9737;59.466;18.036;2023-09-30T09:24:31;101295.78;;;19.53;81.83
19208;BME280;9737;59.466;18.036;2023-09-30T09:27:06;101521.19;;;20.03;81.67
19208;BME280;9737;59.466;18.036;2023-09-30T09:29:35;101516.94;;;20.01;81.49
19208;BME280;9737;59.466;18.036;2023-09-30T09:32:10;101833.28;;;20.73;81.33
19208;BME280;9737;59.466;18.036;2023-09-30T09:34:39;102040.94;;;21.18;81.32
19208;BME280;9737;59.466;18.036;2023-09-30T09:37:17;102321.53;;;21.77;81.19
19208;BME280;9737;59.466;18.036;2023-09-30T09:39:51;102363.13;;;21.76;81.04
19208;BME280;9737;59.466;18.036;2023-09-30T09:42:27;102491.56;;;22.14;81.15
19208;BME280;9737;59.466;18.036;2023-09-30T09:44:57;102707.06;;;22.60;81.22
19208;BME280;9737;59.466;18.036;2023-09-30T09:47:25;103270.34;;;23.79;80.88
19208;BME280;9737;59.466;18.036;2023-09-30T09:49:53;102784.19;;;22.76;80.72
19208;BME280;9737;59.466;18.036;2023-09-30T09:52:23;102332.06;;;21.80;80.72
19208;BME280;9737;59.466;18.036;2023-09-30T09:54:53;101713.13;;;20.49;80.81
19208;BME280;9737;59.466;18.036;2023-09-30T09:57:22;101892.34;;;20.88;80.48
19208;BME280;9737;59.466;18.036;2023-09-30T09:59:52;102081.25;;;21.31;80.29
19208;BME280;9737;59.466;18.036;2023-09-30T10:02:26;102531.72;;;22.30;80.30
19208;BME280;9737;59.466;18.036;2023-09-30T10:04:55;102814.00;;;22.88;80.27
19208;BME280;9737;59.466;18.036;2023-09-30T10:07:27;102698.50;;;22.64;79.71
19208;BME280;9737;59.466;18.036;2023-09-30T10:10:00;102844.03;;;22.96;79.89
19208;BME280;9737;59.466;18.036;2023-09-30T10:12:36;103156.69;;;23.63;79.60
19208;BME280;9737;59.466;18.036;2023-09-30T10:18:09;104035.69;;;25.46;79.36
19208;BME280;9737;59.466;18.036;2023-09-30T10:20:43;103783.13;;;24.92;79.26
19208;BME280;9737;59.466;18.036;2023-09-30T10:23:26;102650.38;;;22.56;79.15
19208;BME280;9737;59.466;18.036;2023-09-30T10:26:15;102377.16;;;22.01;79.02
19208;BME280;9737;59.466;18.036;2023-09-30T10:28:46;102398.31;;;22.07;78.80
19208;BME280;9737;59.466;18.036;2023-09-30T10:31:17;102467.91;;;22.25;78.85
19208;BME280;9737;59.466;18.036;2023-09-30T10:34:22;102043.94;;;21.34;78.63
19208;BME280;9737;59.466;18.036;2023-09-30T10:36:50;101428.84;;;20.00;78.39
19208;BME280;9737;59.466;18.036;2023-09-30T10:39:52;100952.69;;;18.96;78.23
19208;BME280;9737;59.466;18.036;2023-09-30T10:42:47;100639.31;;;18.25;78.19
19208;BME280;9737;59.466;18.036;2023-09-30T10:45:44;100448.94;;;17.84;78.07
19208;BME280;9737;59.466;18.036;2023-09-30T10:48:35;100267.53;;;17.44;77.77
19208;BME280;9737;59.466;18.036;2023-09-30T10:51:12;100238.28;;;17.41;77.74
19208;BME280;9737;59.466;18.036;2023-09-30T10:53:42;100312.63;;;17.58;77.52
19208;BME280;9737;59.466;18.036;2023-09-30T10:56:10;100337.88;;;17.65;77.39
19208;BME280;9737;59.466;18.036;2023-09-30T10:58:41;100402.84;;;17.79;77.20
19208;BME280;9737;59.466;18.036;2023-09-30T11:01:09;100392.09;;;17.79;77.48
19208;BME280;9737;59.466;18.036;2023-09-30T11:03:37;100982.34;;;19.13;76.85
19208;BME280;9737;59.466;18.036;2023-09-30T11:06:05;101371.13;;;20.01;77.01
19208;BME280;9737;59.466;18.036;2023-09-30T11:08:40;101987.53;;;21.40;76.73
19208;BME280;9737;59.466;18.036;2023-09-30T11:11:09;102176.97;;;21.78;76.86
19208;BME280;9737;59.466;18.036;2023-09-30T11:13:37;102291.06;;;22.04;76.66
19208;BME280;9737;59.466;18.036;2023-09-30T11:16:07;102565.59;;;22.64;76.79
19208;BME280;9737;59.466;18.036;2023-09-30T11:18:35;102384.03;;;22.24;76.26
19208;BME280;9737;59.466;18.036;2023-09-30T11:21:06;102286.59;;;22.03;76.29
19208;BME280;9737;59.466;18.036;2023-09-30T11:23:36;102175.84;;;21.81;76.52
19208;BME280;9737;59.466;18.036;2023-09-30T11:26:04;102305.88;;;22.10;76.42
19208;BME280;9737;59.466;18.036;2023-09-30T11:28:36;102229.69;;;21.93;76.04
19208;BME280;9737;59.466;18.036;2023-09-30T11:31:09;102165.88;;;21.81;76.05
19208;BME280;9737;59.466;18.036;2023-09-30T11:33:51;101953.63;;;21.36;75.83
19208;BME280;9737;59.466;18.036;2023-09-30T11:36:20;101785.69;;;21.00;75.75
19208;BME280;9737;59.466;18.036;2023-09-30T11:38:50;101593.50;;;20.56;75.59
19208;BME280;9737;59.466;18.036;2023-09-30T11:41:19;101298.13;;;19.93;75.46
19208;BME280;9737;59.466;18.036;2023-09-30T11:43:59;100739.25;;;18.66;75.36
19208;BME280;9737;59.466;18.036;2023-09-30T11:46:33;100652.91;;;18.50;75.37
19208;BME280;9737;59.466;18.036;2023-09-30T11:49:24;100579.28;;;18.33;75.11
19208;BME280;9737;59.466;18.036;2023-09-30T11:51:53;100809.81;;;18.87;74.99
19208;BME280;9737;59.466;18.036;2023-09-30T11:54:21;101017.75;;;19.36;74.72
19208;BME280;9737;59.466;18.036;2023-09-30T11:56:49;101166.34;;;19.70;74.68
19208;BME280;9737;59.466;18.036;2023-09-30T11:59:18;100952.75;;;19.22;74.92
19208;BME280;9737;59.466;18.036;2023-09-30T12:01:50;100723.78;;;18.68;74.63
19208;BME280;9737;59.466;18.036;2023-09-30T12:04:32;100442.69;;;18.09;74.46
19208;BME280;9737;59.466;18.036;2023-09-30T12:07:02;100436.63;;;18.07;74.26
19208;BME280;9737;59.466;18.036;2023-09-30T12:09:30;100440.84;;;18.10;74.26
19208;BME280;9737;59.466;18.036;2023-09-30T12:11:58;100331.41;;;17.84;74.03
19208;BME280;9737;59.466;18.036;2023-09-30T12:14:26;100456.50;;;18.14;74.04
19208;BME280;9737;59.466;18.036;2023-09-30T12:16:57;100423.19;;;18.07;74.02
19208;BME280;9737;59.466;18.036;2023-09-30T12:19:25;100319.81;;;17.84;73.69
19208;BME280;9737;59.466;18.036;2023-09-30T12:21:53;100350.78;;;17.88;73.67
19208;BME280;9737;59.466;18.036;2023-09-30T12:24:22;100250.69;;;17.68;73.74
19208;BME280;9737;59.466;18.036;2023-09-30T12:26:51;100286.19;;;17.80;73.53
19208;BME280;9737;59.466;18.036;2023-09-30T12:29:21;100576.97;;;18.46;73.42
19208;BME280;9737;59.466;18.036;2023-09-30T12:31:51;100526.09;;;18.35;73.52
19208;BME280;9737;59.466;18.036;2023-09-30T12:34:22;100234.56;;;17.68;73.52
19208;BME280;9737;59.466;18.036;2023-09-30T12:36:53;100022.84;;;17.20;73.28
19208;BME280;9737;59.466;18.036;2023-09-30T12:39:20;100279.13;;;17.79;73.20
19208;BME280;9737;59.466;18.036;2023-09-30T12:41:52;100665.19;;;18.70;73.01
19208;BME280;9737;59.466;18.036;2023-09-30T12:44:21;101092.94;;;19.67;73.06
19208;BME280;9737;59.466;18.036;2023-09-30T12:46:49;101223.09;;;19.96;73.09
19208;BME280;9737;59.466;18.036;2023-09-30T12:49:18;101296.13;;;20.13;73.06
19208;BME280;9737;59.466;18.036;2023-09-30T12:51:48;101397.50;;;20.34;72.98
19208;BME280;9737;59.466;18.036;2023-09-30T12:54:16;101842.66;;;21.36;73.03
19208;BME280;9737;59.466;18.036;2023-09-30T12:56:45;102145.88;;;22.02;72.81
19208;BME280;9737;59.466;18.036;2023-09-30T12:59:14;102516.81;;;22.83;72.66
19208;BME280;9737;59.466;18.036;2023-09-30T13:01:42;102075.19;;;21.85;72.91
19208;BME280;9737;59.466;18.036;2023-09-30T13:04:11;101511.81;;;20.62;72.84
19208;BME280;9737;59.466;18.036;2023-09-30T13:06:39;101244.91;;;20.03;72.68
19208;BME280;9737;59.466;18.036;2023-09-30T13:09:09;101093.63;;;19.69;72.52
19208;BME280;9737;59.466;18.036;2023-09-30T13:11:38;101131.16;;;19.80;72.54
19208;BME280;9737;59.466;18.036;2023-09-30T13:14:06;101001.03;;;19.50;72.28
19208;BME280;9737;59.466;18.036;2023-09-30T13:16:34;100986.84;;;19.48;72.18